Time;durP1;ratioP1;P1;durP2;ratioP2;P2;SDS_P1;SDS_P2;PMS_P1;PMS_P2;Temp;Humidity;BMP_temperature;BMP_pressure;BME280_temperature;BME280_humidity;BME280_pressure;Samples;Min_cycle;Max_cycle;Signal;HPM_P1;HPM_P2
2021/12/06 00:01:18;;;;;;;23.00;15.97;;;-5.00;99.90;;;;;;5016448;28;20458;-79
2021/12/06 00:04:07;;;;;;;19.83;15.17;;;-5.40;99.90;;;;;;5016093;28;20419;-77
2021/12/06 00:06:37;;;;;;;17.20;14.63;;;-5.20;99.90;;;;;;5018767;28;20409;-76
2021/12/06 00:09:06;;;;;;;23.07;17.03;;;-5.00;99.90;;;;;;5016108;28;20394;-78
2021/12/06 00:11:34;;;;;;;24.67;16.40;;;-5.20;99.90;;;;;;5016205;28;20409;-79
2021/12/06 00:14:01;;;;;;;22.47;17.67;;;-5.30;99.90;;;;;;5031573;28;20502;-77
2021/12/06 00:16:27;;;;;;;26.33;17.50;;;-4.00;99.90;;;;;;5016012;28;20450;-75
2021/12/06 00:18:53;;;;;;;23.17;17.20;;;-5.20;99.90;;;;;;5015880;28;20438;-76
2021/12/06 00:21:20;;;;;;;19.20;16.33;;;-5.30;99.90;;;;;;5015933;28;20196;-77
2021/12/06 00:23:46;;;;;;;19.20;16.83;;;-5.30;99.90;;;;;;5014699;28;20570;-77
2021/12/06 00:26:12;;;;;;;20.93;15.83;;;-5.30;99.90;;;;;;5015609;28;20396;-78
2021/12/06 00:28:40;;;;;;;19.77;16.10;;;-5.50;99.90;;;;;;5015883;28;20525;-77
2021/12/06 00:31:06;;;;;;;19.07;16.00;;;-3.90;99.90;;;;;;5015828;28;20895;-78
2021/12/06 00:33:32;;;;;;;21.77;16.97;;;-5.30;99.90;;;;;;5015846;28;20462;-78
2021/12/06 00:36:03;;;;;;;22.00;16.00;;;-5.10;99.90;;;;;;5015654;28;20597;-78
2021/12/06 00:38:31;;;;;;;19.13;15.63;;;-3.90;99.90;;;;;;5015866;28;20166;-78
2021/12/06 00:40:57;;;;;;;20.63;16.07;;;-3.40;99.90;;;;;;5015568;28;20681;-77
2021/12/06 00:43:23;;;;;;;19.87;15.63;;;-4.90;99.90;;;;;;5031175;28;20415;-79
2021/12/06 00:45:50;;;;;;;20.90;15.70;;;-5.00;99.90;;;;;;5015733;28;20175;-78
2021/12/06 00:48:16;;;;;;;21.77;16.37;;;-3.80;99.90;;;;;;5015508;28;20436;-77
2021/12/06 00:50:44;;;;;;;21.33;18.63;;;-3.90;99.90;;;;;;5014569;28;20468;-77
2021/12/06 00:53:11;;;;;;;22.17;16.27;;;-2.90;99.90;;;;;;5015793;28;20487;-75
2021/12/06 00:55:37;;;;;;;20.60;16.60;;;-3.80;99.90;;;;;;5015305;28;20396;-74
2021/12/06 00:58:04;;;;;;;21.30;17.27;;;-5.10;99.90;;;;;;5015665;28;20429;-77
2021/12/06 01:00:34;;;;;;;17.67;15.43;;;-4.90;99.90;;;;;;5018360;28;20447;-78
2021/12/06 01:03:00;;;;;;;22.67;16.70;;;-4.40;99.90;;;;;;5018077;28;20478;-77
2021/12/06 01:05:26;;;;;;;18.57;15.90;;;-3.80;99.90;;;;;;5019263;28;20432;-73
2021/12/06 01:07:56;;;;;;;22.90;15.87;;;-4.90;99.90;;;;;;5034769;28;20416;-77
2021/12/06 01:10:23;;;;;;;18.00;15.67;;;-3.60;99.90;;;;;;5018942;28;20452;-77
2021/12/06 01:12:49;;;;;;;21.73;17.17;;;-5.10;99.90;;;;;;5019195;28;20426;-76
2021/12/06 01:15:15;;;;;;;18.33;16.40;;;-5.30;99.90;;;;;;5017994;28;20440;-76
2021/12/06 01:17:41;;;;;;;18.93;15.93;;;-5.50;99.90;;;;;;5019136;28;20197;-76
2021/12/06 01:20:11;;;;;;;21.50;16.47;;;-3.00;99.90;;;;;;5018983;28;20486;-76
2021/12/06 01:22:52;;;;;;;18.80;14.77;;;-5.10;99.90;;;;;;5019209;28;20463;-74
2021/12/06 01:28:33;;;;;;;22.23;17.57;;;-5.20;99.90;;;;;;5017798;28;20750;-77
2021/12/06 01:39:11;;;;;;;19.03;16.93;;;-5.40;99.90;;;;;;5018554;28;20394;-76
2021/12/06 01:41:40;;;;;;;20.73;16.60;;;-4.00;99.90;;;;;;5018871;28;20407;-73
2021/12/06 01:44:26;;;;;;;20.90;16.37;;;-5.40;99.90;;;;;;5017713;28;20412;-75
2021/12/06 01:46:59;;;;;;;20.27;15.17;;;-5.00;99.90;;;;;;5018470;28;20506;-74
2021/12/06 01:49:29;;;;;;;18.03;15.00;;;-5.50;99.90;;;;;;5018586;28;20543;-75
2021/12/06 01:51:58;;;;;;;21.87;15.43;;;-5.00;99.90;;;;;;5018406;28;20403;-73
2021/12/06 01:54:25;;;;;;;23.30;16.03;;;-5.20;99.90;;;;;;5018265;28;20404;-72
2021/12/06 01:56:52;;;;;;;18.07;14.87;;;-5.10;99.90;;;;;;5018275;28;20455;-73
2021/12/06 01:59:18;;;;;;;18.67;15.70;;;-5.50;99.90;;;;;;5018412;28;20407;-73
2021/12/06 02:01:44;;;;;;;16.03;13.83;;;-5.30;99.90;;;;;;5018240;28;20751;-73
2021/12/06 02:04:10;;;;;;;23.30;16.70;;;-5.30;99.90;;;;;;5017023;28;20404;-72
2021/12/06 02:06:38;;;;;;;17.80;14.07;;;-5.50;99.90;;;;;;5018017;28;20178;-73
2021/12/06 02:09:07;;;;;;;18.10;15.03;;;-6.20;99.90;;;;;;5017719;28;20463;-73
2021/12/06 02:11:35;;;;;;;18.63;15.87;;;-6.30;99.90;;;;;;5017223;28;20401;-73
2021/12/06 02:14:56;;;;;;;19.60;15.17;;;-6.10;99.90;;;;;;5017936;28;20850;-73
2021/12/06 02:17:27;;;;;;;18.13;15.47;;;-6.00;99.90;;;;;;5013906;28;20427;-74
2021/12/06 02:19:54;;;;;;;21.57;15.00;;;-6.60;99.90;;;;;;5017520;28;20508;-74
2021/12/06 02:22:23;;;;;;;20.77;15.07;;;-6.10;99.90;;;;;;5017571;28;20710;-74
2021/12/06 02:24:52;;;;;;;19.67;16.40;;;-6.40;99.90;;;;;;5017770;28;20411;-75
2021/12/06 02:27:20;;;;;;;19.53;15.87;;;-6.90;99.90;;;;;;5017672;28;20400;-73
2021/12/06 02:29:48;;;;;;;20.03;14.97;;;-6.90;99.90;;;;;;5017774;28;21029;-76
2021/12/06 02:32:15;;;;;;;21.43;16.73;;;-6.80;99.90;;;;;;5017527;28;20391;-74
2021/12/06 02:34:45;;;;;;;19.57;14.90;;;-6.60;99.90;;;;;;5033091;28;20507;-74
2021/12/06 02:37:15;;;;;;;19.73;16.60;;;-6.70;99.90;;;;;;5017158;28;20485;-74
2021/12/06 02:39:40;;;;;;;17.47;14.93;;;-6.60;99.90;;;;;;5017622;28;20402;-74
2021/12/06 02:42:11;;;;;;;19.97;15.07;;;-7.20;99.90;;;;;;5017379;28;20398;-74
2021/12/06 02:44:37;;;;;;;17.47;14.87;;;-7.10;99.90;;;;;;5016380;28;20169;-73
2021/12/06 02:47:04;;;;;;;17.33;14.53;;;-6.30;99.90;;;;;;5017008;28;20749;-74
2021/12/06 02:49:30;;;;;;;20.03;15.77;;;-6.80;99.90;;;;;;5016261;28;20491;-73
2021/12/06 02:51:57;;;;;;;18.67;14.17;;;-6.50;99.90;;;;;;5017005;28;20395;-74
2021/12/06 02:54:24;;;;;;;16.67;14.83;;;-5.30;99.90;;;;;;5032756;28;20407;-75
2021/12/06 02:59:32;;;;;;;20.30;15.57;;;-6.20;99.90;;;;;;5017557;28;20403;-74
2021/12/06 03:02:02;;;;;;;19.87;14.63;;;-6.40;99.90;;;;;;5015967;28;20465;-77
2021/12/06 03:04:28;;;;;;;21.43;16.77;;;-6.70;99.90;;;;;;5017268;28;20396;-74
2021/12/06 03:06:55;;;;;;;21.17;15.73;;;-6.60;99.90;;;;;;5016048;28;20407;-73
2021/12/06 03:09:24;;;;;;;27.27;18.10;;;-6.30;99.90;;;;;;5017419;28;20777;-77
2021/12/06 03:11:54;;;;;;;21.17;16.30;;;-6.30;99.90;;;;;;5032491;28;20403;-73
2021/12/06 03:14:26;;;;;;;23.67;16.20;;;-6.60;99.90;;;;;;5015889;28;20434;-73
2021/12/06 03:16:54;;;;;;;19.83;15.73;;;-6.70;99.90;;;;;;5017121;28;20406;-78
2021/12/06 03:19:19;;;;;;;19.13;15.83;;;-5.90;99.90;;;;;;5032465;28;20455;-74
2021/12/06 03:21:45;;;;;;;19.93;15.57;;;-7.00;99.90;;;;;;5016453;28;20434;-74
2021/12/06 03:24:11;;;;;;;21.10;16.67;;;-6.40;99.90;;;;;;5016738;28;20170;-73
2021/12/06 03:26:38;;;;;;;21.03;16.47;;;-6.10;99.90;;;;;;5016751;28;20178;-75
2021/12/06 03:29:04;;;;;;;24.80;18.17;;;-6.40;99.90;;;;;;5032125;28;20260;-74
2021/12/06 03:31:30;;;;;;;26.23;19.30;;;-6.40;99.90;;;;;;5015661;28;20409;-76
2021/12/06 03:33:57;;;;;;;24.93;17.90;;;-6.20;99.90;;;;;;5016381;28;20407;-74
2021/12/06 03:36:25;;;;;;;25.63;19.40;;;-4.20;99.90;;;;;;5016249;28;20883;-78
2021/12/06 03:38:53;;;;;;;27.80;17.67;;;-6.30;99.90;;;;;;5015382;28;20510;-74
2021/12/06 03:41:21;;;;;;;31.00;21.77;;;-6.00;99.90;;;;;;5016416;28;20483;-77
2021/12/06 03:43:48;;;;;;;28.03;21.00;;;-5.80;99.90;;;;;;5016346;28;20429;-76
2021/12/06 03:46:15;;;;;;;28.40;18.97;;;-5.00;99.90;;;;;;5016293;28;20498;-73
2021/12/06 03:48:41;;;;;;;31.13;20.80;;;-6.30;99.90;;;;;;5016756;28;20851;-76
2021/12/06 03:51:09;;;;;;;32.33;20.63;;;-6.50;99.90;;;;;;5015378;28;20477;-77
2021/12/06 03:53:35;;;;;;;29.83;19.50;;;-6.50;99.90;;;;;;5016181;28;20406;-75
2021/12/06 03:56:01;;;;;;;32.90;21.70;;;-4.10;99.90;;;;;;5016183;28;20174;-73
2021/12/06 03:58:27;;;;;;;37.03;23.37;;;-5.80;99.90;;;;;;5016126;28;20414;-77
2021/12/06 04:00:54;;;;;;;34.43;22.93;;;-4.90;99.90;;;;;;5016294;28;20181;-75
2021/12/06 04:03:22;;;;;;;33.70;23.17;;;-5.30;99.90;;;;;;5015879;28;20411;-76
2021/12/06 04:05:49;;;;;;;36.20;26.00;;;-5.60;99.90;;;;;;5015331;28;20469;-76
2021/12/06 04:08:14;;;;;;;33.80;22.13;;;-6.00;99.90;;;;;;5015917;28;20495;-74
2021/12/06 04:10:42;;;;;;;42.37;22.93;;;-6.10;99.90;;;;;;5016128;28;20545;-74
2021/12/06 04:13:09;;;;;;;36.47;23.77;;;-6.10;99.90;;;;;;5016177;28;20174;-76
2021/12/06 04:15:37;;;;;;;35.83;24.20;;;-5.80;99.90;;;;;;5016282;28;20407;-75
2021/12/06 04:18:04;;;;;;;33.60;22.53;;;-5.90;99.90;;;;;;5015564;28;20731;-75
2021/12/06 04:20:30;;;;;;;44.50;29.60;;;-6.00;99.90;;;;;;5016313;28;20417;-74
2021/12/06 04:22:57;;;;;;;33.87;21.93;;;-5.80;99.90;;;;;;5015978;28;20549;-74
2021/12/06 04:25:23;;;;;;;33.97;23.57;;;-5.90;99.90;;;;;;5016128;28;20484;-78
2021/12/06 04:27:55;;;;;;;36.53;23.57;;;-5.70;99.90;;;;;;5016043;28;20410;-77
2021/12/06 04:30:24;;;;;;;38.93;24.70;;;-5.70;99.90;;;;;;5016518;28;20446;-75
2021/12/06 04:32:52;;;;;;;35.17;22.90;;;-4.70;99.90;;;;;;5016264;28;20411;-75
2021/12/06 04:35:19;;;;;;;37.33;25.27;;;-5.50;99.90;;;;;;5035441;28;20403;-75
2021/12/06 04:37:45;;;;;;;41.47;25.23;;;-6.40;99.90;;;;;;5019919;28;20458;-77
2021/12/06 04:40:11;;;;;;;38.83;25.63;;;-6.30;99.90;;;;;;5018901;28;20726;-75
2021/12/06 04:42:39;;;;;;;49.47;27.47;;;-6.20;99.90;;;;;;5020022;28;20180;-77
2021/12/06 04:45:05;;;;;;;41.80;26.37;;;-6.30;99.90;;;;;;5019709;28;20410;-77
2021/12/06 04:47:31;;;;;;;44.23;28.40;;;-6.20;99.90;;;;;;5019321;28;20434;-74
2021/12/06 04:49:57;;;;;;;47.90;25.87;;;-4.90;99.90;;;;;;5035077;28;20562;-76
2021/12/06 04:52:24;;;;;;;51.33;29.23;;;-5.50;99.90;;;;;;5019877;28;20174;-76
2021/12/06 04:54:53;;;;;;;50.33;29.20;;;-6.10;99.90;;;;;;5019752;28;20173;-78
2021/12/06 04:57:26;;;;;;;51.77;28.63;;;-6.40;99.90;;;;;;5019761;28;20402;-78
2021/12/06 05:00:11;;;;;;;47.33;25.13;;;-6.50;99.90;;;;;;5019656;28;20406;-77
2021/12/06 05:02:41;;;;;;;61.30;27.13;;;-6.60;99.90;;;;;;5019387;28;20695;-73
2021/12/06 05:05:14;;;;;;;52.83;25.70;;;-5.80;99.90;;;;;;5018268;28;20456;-73
2021/12/06 05:07:44;;;;;;;67.10;28.83;;;-6.40;99.90;;;;;;5019479;28;20477;-78
2021/12/06 05:10:11;;;;;;;51.47;28.73;;;-6.10;99.90;;;;;;5019090;28;20451;-77
2021/12/06 05:12:38;;;;;;;96.00;29.57;;;-6.50;99.90;;;;;;5019312;28;20465;-74
2021/12/06 05:15:05;;;;;;;58.80;26.43;;;-6.20;99.90;;;;;;5019153;28;20403;-72
2021/12/06 05:17:33;;;;;;;77.60;28.60;;;-5.90;99.90;;;;;;5018836;28;20493;-75
2021/12/06 05:20:00;;;;;;;144.70;34.43;;;-4.20;99.90;;;;;;5019030;28;20411;-77
2021/12/06 05:22:27;;;;;;;180.17;33.07;;;-5.10;99.90;;;;;;5018004;28;20415;-78
2021/12/06 05:24:54;;;;;;;244.13;35.93;;;-6.70;99.90;;;;;;5034491;28;20457;-77
2021/12/06 05:27:26;;;;;;;232.40;35.87;;;-6.90;99.90;;;;;;5019164;28;20414;-76
2021/12/06 05:29:56;;;;;;;129.70;30.97;;;-4.80;99.90;;;;;;5019508;28;20438;-75
2021/12/06 05:32:25;;;;;;;161.70;31.70;;;-5.20;99.90;;;;;;5034451;28;20713;-74
2021/12/06 05:34:57;;;;;;;247.57;32.37;;;-6.00;99.90;;;;;;5019500;28;20403;-75
2021/12/06 05:37:23;;;;;;;141.90;26.47;;;-5.40;99.90;;;;;;5019517;28;20859;-77
2021/12/06 05:39:49;;;;;;;187.67;26.17;;;-6.50;99.90;;;;;;5019389;28;20409;-75
2021/12/06 05:42:15;;;;;;;129.43;24.60;;;-7.00;99.90;;;;;;5019435;28;20699;-74
2021/12/06 05:44:42;;;;;;;114.87;20.63;;;-6.90;99.90;;;;;;5019436;28;20253;-72
2021/12/06 05:47:08;;;;;;;114.87;22.30;;;-7.60;99.90;;;;;;5016740;28;20434;-72
2021/12/06 05:49:35;;;;;;;63.80;20.63;;;-7.60;99.90;;;;;;5018636;28;20447;-72
2021/12/06 05:52:00;;;;;;;71.37;20.40;;;-7.50;99.90;;;;;;5019525;28;20479;-72
2021/12/06 05:54:28;;;;;;;88.97;21.17;;;-7.40;99.90;;;;;;5018631;28;20790;-72
2021/12/06 05:56:55;;;;;;;91.10;20.10;;;-7.40;99.90;;;;;;5019460;28;20161;-73
2021/12/06 05:59:21;;;;;;;117.37;21.10;;;-7.20;99.90;;;;;;5018675;28;20395;-72
2021/12/06 06:01:49;;;;;;;78.07;21.33;;;-7.90;99.90;;;;;;5018023;28;20405;-73
2021/12/06 06:04:15;;;;;;;48.57;19.60;;;-6.80;99.90;;;;;;5018287;28;20921;-73
2021/12/06 06:06:41;;;;;;;93.40;18.40;;;-6.80;99.90;;;;;;5018412;28;20406;-74
2021/12/06 06:09:07;;;;;;;90.47;18.77;;;-7.00;99.90;;;;;;5018208;28;20395;-73
2021/12/06 06:11:34;;;;;;;44.23;18.87;;;-7.70;99.90;;;;;;5033611;28;20639;-72
2021/12/06 06:14:02;;;;;;;68.37;20.70;;;-7.60;99.90;;;;;;5017976;28;20460;-72
2021/12/06 06:16:32;;;;;;;70.43;19.73;;;-7.10;99.90;;;;;;5018093;28;20449;-71
2021/12/06 06:18:58;;;;;;;50.93;17.00;;;-8.10;99.90;;;;;;5018436;28;20437;-78
2021/12/06 06:21:24;;;;;;;102.30;20.37;;;-7.60;99.90;;;;;;5017760;28;20403;-77
2021/12/06 06:23:49;;;;;;;99.97;19.37;;;-5.90;99.90;;;;;;5017714;28;20887;-78
2021/12/06 06:26:15;;;;;;;94.03;20.70;;;-7.80;99.90;;;;;;5018804;28;20577;-75
2021/12/06 06:28:41;;;;;;;104.80;21.93;;;-5.30;99.90;;;;;;5018835;28;20184;-80
2021/12/06 06:31:07;;;;;;;80.93;21.00;;;-5.90;99.90;;;;;;5018552;28;20284;-76
2021/12/06 06:33:33;;;;;;;95.50;20.10;;;-5.60;99.90;;;;;;5018843;28;20173;-80
2021/12/06 06:35:59;;;;;;;176.73;22.67;;;-6.00;99.90;;;;;;5019155;28;20244;-80
2021/12/06 06:38:25;;;;;;;85.37;19.30;;;-7.00;99.90;;;;;;5018878;28;20395;-76
2021/12/06 06:40:51;;;;;;;55.67;16.37;;;-6.80;99.90;;;;;;5018853;28;20395;-75
2021/12/06 06:43:18;;;;;;;98.83;19.37;;;-6.20;99.90;;;;;;5018055;28;20403;-78
2021/12/06 06:45:45;;;;;;;77.17;19.87;;;-6.10;99.90;;;;;;5018681;28;20722;-79
2021/12/06 06:48:11;;;;;;;77.23;19.20;;;-6.30;99.90;;;;;;5018563;28;20743;-81
2021/12/06 06:50:38;;;;;;;118.10;20.40;;;-6.60;99.90;;;;;;5018765;28;20449;-75
2021/12/06 06:53:04;;;;;;;105.87;23.20;;;-6.40;99.90;;;;;;5019339;28;20406;-78
2021/12/06 06:55:30;;;;;;;80.07;19.67;;;-6.70;99.90;;;;;;5017512;28;20403;-75
2021/12/06 06:57:56;;;;;;;90.60;17.47;;;-7.60;99.90;;;;;;5016887;28;20407;-79
2021/12/06 07:00:28;;;;;;;71.87;17.93;;;-7.10;99.90;;;;;;5016364;28;20581;-78
2021/12/06 07:02:54;;;;;;;55.80;17.60;;;-7.10;99.90;;;;;;5017294;28;20173;-75
2021/12/06 07:05:21;;;;;;;59.63;17.40;;;-7.00;99.90;;;;;;5016936;28;20402;-71
2021/12/06 07:07:46;;;;;;;154.03;22.10;;;-7.00;99.90;;;;;;5016983;28;20203;-70
2021/12/06 07:10:12;;;;;;;104.53;18.77;;;-7.10;99.90;;;;;;5016969;28;20478;-71
2021/12/06 07:12:48;;;;;;;84.97;18.03;;;-6.10;99.90;;;;;;5019504;28;20165;-72
2021/12/06 07:15:17;;;;;;;73.07;18.50;;;-6.90;99.90;;;;;;5017046;28;20247;-72
2021/12/06 07:17:44;;;;;;;46.40;15.50;;;-7.10;99.90;;;;;;5032049;28;20838;-71
2021/12/06 07:20:12;;;;;;;66.63;16.00;;;-7.40;99.90;;;;;;5016865;28;20866;-72
2021/12/06 07:22:38;;;;;;;58.40;17.07;;;-7.00;99.90;;;;;;5016641;28;20449;-71
2021/12/06 07:25:05;;;;;;;104.27;17.40;;;-7.50;99.90;;;;;;5016742;28;20395;-69
2021/12/06 07:27:31;;;;;;;68.73;15.70;;;-7.10;99.90;;;;;;5016336;28;20490;-73
2021/12/06 07:29:57;;;;;;;48.10;16.37;;;-7.20;99.90;;;;;;5016598;28;20798;-74
2021/12/06 07:32:23;;;;;;;30.47;13.57;;;-6.20;99.90;;;;;;5016412;28;20176;-75
2021/12/06 07:34:51;;;;;;;33.00;14.70;;;-6.50;99.90;;;;;;5016589;28;20507;-74
2021/12/06 07:37:17;;;;;;;53.30;15.80;;;-6.60;99.90;;;;;;5016646;28;20181;-73
2021/12/06 07:39:43;;;;;;;61.83;14.87;;;-6.80;99.90;;;;;;5016554;28;20399;-74
2021/12/06 07:42:12;;;;;;;54.87;16.43;;;-6.90;99.90;;;;;;5016331;28;20465;-74
2021/12/06 07:44:39;;;;;;;33.83;14.90;;;-6.80;99.90;;;;;;5016679;28;20880;-74
2021/12/06 07:47:13;;;;;;;44.93;14.83;;;-5.20;99.90;;;;;;5016154;28;20430;-73
2021/12/06 07:49:39;;;;;;;31.60;14.70;;;-6.70;99.90;;;;;;5018104;28;20523;-72
2021/12/06 07:52:06;;;;;;;38.13;13.77;;;-7.20;99.90;;;;;;5026505;28;20537;-79
2021/12/06 07:54:33;;;;;;;48.40;14.77;;;-7.00;99.90;;;;;;5023627;28;20404;-75
2021/12/06 07:57:01;;;;;;;32.73;14.80;;;-7.10;99.90;;;;;;5024508;28;20413;-72
2021/12/06 07:59:28;;;;;;;30.63;14.40;;;-7.40;99.90;;;;;;5019332;28;20418;-72
2021/12/06 08:01:54;;;;;;;24.80;10.77;;;-7.10;99.90;;;;;;5033674;28;20536;-74
2021/12/06 08:04:20;;;;;;;45.70;15.73;;;-7.10;99.90;;;;;;5035362;28;20402;-72
2021/12/06 08:06:48;;;;;;;33.43;13.30;;;-6.70;99.90;;;;;;5033864;28;20873;-73
2021/12/06 08:09:15;;;;;;;39.00;12.37;;;-7.00;99.90;;;;;;5033842;28;20180;-73
2021/12/06 08:11:42;;;;;;;25.53;12.90;;;-6.20;99.90;;;;;;5030246;28;20549;-75
2021/12/06 08:14:12;;;;;;;31.57;12.60;;;-7.30;99.90;;;;;;5029748;28;20428;-74
2021/12/06 08:16:42;;;;;;;22.67;12.00;;;-7.40;99.90;;;;;;5034566;28;20421;-74
2021/12/06 08:19:09;;;;;;;26.37;11.73;;;-7.00;99.90;;;;;;5019299;28;20839;-75
2021/12/06 08:21:34;;;;;;;22.90;11.60;;;-6.20;99.90;;;;;;5034723;28;20751;-73
2021/12/06 08:24:05;;;;;;;15.97;10.33;;;-6.10;99.90;;;;;;5032608;28;20428;-74
2021/12/06 08:26:34;;;;;;;21.97;11.57;;;-6.70;99.90;;;;;;5034385;28;20164;-74
2021/12/06 08:29:05;;;;;;;16.20;10.37;;;-4.00;99.90;;;;;;5033567;28;20845;-74
2021/12/06 08:31:31;;;;;;;19.67;11.50;;;-6.20;99.90;;;;;;5034965;28;20438;-75
2021/12/06 08:33:59;;;;;;;15.27;10.60;;;-6.10;99.90;;;;;;5035768;28;20448;-76
2021/12/06 08:36:25;;;;;;;17.70;12.60;;;-5.80;99.90;;;;;;5033901;28;20430;-74
2021/12/06 08:38:55;;;;;;;21.57;12.67;;;-6.60;99.90;;;;;;5019687;28;20452;-75
2021/12/06 08:41:25;;;;;;;11.03;8.87;;;-7.10;99.90;;;;;;5022908;28;20410;-74
2021/12/06 08:43:53;;;;;;;21.47;10.97;;;-6.70;99.90;;;;;;5035058;28;20409;-72
2021/12/06 08:46:29;;;;;;;22.23;11.27;;;-6.40;99.90;;;;;;5036013;28;20822;-75
2021/12/06 08:48:56;;;;;;;15.83;9.57;;;-6.20;99.90;;;;;;5020080;28;20487;-74
2021/12/06 08:51:35;;;;;;;20.13;11.80;;;-5.90;99.90;;;;;;5015558;28;20510;-74
2021/12/06 08:54:03;;;;;;;24.20;11.87;;;-6.40;99.90;;;;;;5015423;28;20395;-75
2021/12/06 08:56:31;;;;;;;24.23;12.77;;;-6.20;99.90;;;;;;5019696;28;20402;-77
2021/12/06 08:58:58;;;;;;;24.33;11.87;;;-6.30;99.90;;;;;;5034140;28;20441;-72
2021/12/06 09:01:27;;;;;;;17.67;11.50;;;-6.00;99.90;;;;;;5035258;28;20404;-75
2021/12/06 09:03:53;;;;;;;16.57;10.77;;;-5.60;99.90;;;;;;5034968;28;20456;-75
2021/12/06 09:06:21;;;;;;;22.60;11.33;;;-4.00;99.90;;;;;;5035174;28;20414;-74
2021/12/06 09:08:47;;;;;;;17.83;12.37;;;-5.50;99.90;;;;;;5034756;28;20433;-74
2021/12/06 09:11:13;;;;;;;23.73;14.03;;;-4.60;99.90;;;;;;5034504;28;20881;-75
2021/12/06 09:13:41;;;;;;;18.63;13.57;;;-6.20;99.90;;;;;;5034941;28;20482;-74
2021/12/06 09:16:10;;;;;;;22.43;13.77;;;-5.90;99.90;;;;;;5035602;28;20157;-74
2021/12/06 09:18:39;;;;;;;17.37;13.17;;;-5.90;99.90;;;;;;5032445;28;20936;-72
2021/12/06 09:21:09;;;;;;;19.50;13.03;;;-6.10;99.90;;;;;;5038020;28;20432;-75
2021/12/06 09:23:35;;;;;;;19.63;13.73;;;-6.00;99.90;;;;;;5037437;28;20437;-75
2021/12/06 09:26:02;;;;;;;20.87;15.07;;;-6.20;99.90;;;;;;5038431;28;20441;-75
2021/12/06 09:28:28;;;;;;;23.90;15.07;;;-4.00;99.90;;;;;;5037813;28;20479;-75
2021/12/06 09:30:55;;;;;;;23.57;14.97;;;-6.00;99.90;;;;;;5038008;28;20537;-76
2021/12/06 09:33:23;;;;;;;24.33;15.77;;;-5.00;99.90;;;;;;5037130;28;20858;-76
2021/12/06 09:35:51;;;;;;;21.13;13.97;;;-6.30;99.90;;;;;;5038194;28;20412;-76
2021/12/06 09:38:22;;;;;;;24.23;15.00;;;-6.60;99.90;;;;;;5037590;28;20406;-74
2021/12/06 09:40:50;;;;;;;17.97;13.93;;;-5.70;99.90;;;;;;5038354;28;20425;-75
2021/12/06 09:43:17;;;;;;;27.63;14.30;;;-6.20;99.90;;;;;;5038631;28;20460;-78
2021/12/06 09:45:44;;;;;;;19.93;14.60;;;-4.50;99.90;;;;;;5038016;28;20714;-73
2021/12/06 09:48:15;;;;;;;21.27;13.77;;;-6.00;99.90;;;;;;5029538;28;20449;-74
2021/12/06 09:50:46;;;;;;;18.87;14.27;;;-5.40;99.90;;;;;;5023345;28;20457;-77
2021/12/06 09:53:20;;;;;;;23.37;13.97;;;-5.20;99.90;;;;;;5038316;28;20401;-78
2021/12/06 09:55:51;;;;;;;20.67;14.97;;;-3.90;99.90;;;;;;5038003;28;20830;-73
2021/12/06 09:58:22;;;;;;;21.90;15.27;;;-5.70;99.90;;;;;;5037646;28;20410;-78
2021/12/06 10:00:53;;;;;;;19.13;14.20;;;-5.60;99.90;;;;;;5037944;28;20477;-74
2021/12/06 10:03:24;;;;;;;21.97;15.03;;;-5.50;99.90;;;;;;5037953;28;20483;-74
2021/12/06 10:05:52;;;;;;;17.90;14.27;;;-5.30;99.90;;;;;;5036488;28;20445;-78
2021/12/06 10:08:19;;;;;;;18.40;13.53;;;-5.10;99.90;;;;;;5037052;28;20424;-82
2021/12/06 10:10:47;;;;;;;17.47;14.23;;;-5.90;99.90;;;;;;5037430;28;20566;-81
2021/12/06 10:13:13;;;;;;;23.20;15.97;;;-6.00;99.90;;;;;;5035129;28;20402;-73
2021/12/06 10:15:43;;;;;;;19.30;14.33;;;-5.10;99.90;;;;;;5035926;28;20406;-74
2021/12/06 10:18:16;;;;;;;20.90;14.97;;;-6.30;99.90;;;;;;5027680;28;20411;-74
2021/12/06 10:20:45;;;;;;;18.90;15.50;;;-6.50;99.90;;;;;;5019299;28;20418;-78
2021/12/06 10:23:12;;;;;;;19.07;15.70;;;-6.70;99.90;;;;;;5035291;28;20548;-74
2021/12/06 10:25:43;;;;;;;17.47;14.20;;;-6.90;99.90;;;;;;5037209;28;20845;-75
2021/12/06 10:28:09;;;;;;;23.40;15.83;;;-6.60;99.90;;;;;;5034896;28;20515;-74
2021/12/06 10:30:45;;;;;;;22.73;15.10;;;-6.40;99.90;;;;;;5036613;28;20748;-73
2021/12/06 10:33:17;;;;;;;17.60;14.37;;;-6.20;99.90;;;;;;5036482;28;20394;-75
2021/12/06 10:35:49;;;;;;;21.17;15.77;;;-6.50;99.90;;;;;;5035193;28;20845;-73
2021/12/06 10:38:29;;;;;;;17.57;14.13;;;-6.30;99.90;;;;;;5036315;28;20449;-72
2021/12/06 10:41:15;;;;;;;18.57;15.23;;;-5.80;99.90;;;;;;5036084;28;20751;-74
2021/12/06 10:43:55;;;;;;;18.20;14.87;;;-6.00;99.90;;;;;;5035818;28;20418;-75
2021/12/06 10:46:21;;;;;;;20.13;15.50;;;-5.60;99.90;;;;;;5036617;28;20452;-74
2021/12/06 10:48:49;;;;;;;18.37;13.93;;;-4.20;99.90;;;;;;5026683;28;20511;-74
2021/12/06 10:51:18;;;;;;;20.93;14.37;;;-4.50;99.90;;;;;;5034981;28;20517;-78
2021/12/06 10:53:58;;;;;;;21.07;15.73;;;-4.00;99.90;;;;;;5036686;28;20493;-74
2021/12/06 10:56:36;;;;;;;21.87;14.57;;;-4.90;99.90;;;;;;5036314;28;20727;-74
2021/12/06 10:59:05;;;;;;;18.17;13.43;;;-5.90;99.90;;;;;;5030119;28;20421;-77
2021/12/06 11:01:33;;;;;;;18.53;14.20;;;-6.60;99.90;;;;;;5030367;28;20414;-75
2021/12/06 11:04:02;;;;;;;19.13;14.53;;;-5.90;99.90;;;;;;5030275;28;20449;-76
2021/12/06 11:06:32;;;;;;;20.80;15.97;;;-4.90;99.90;;;;;;5035533;28;20492;-76
2021/12/06 11:09:05;;;;;;;18.17;13.80;;;-3.40;99.90;;;;;;5035724;28;20418;-75
2021/12/06 11:11:36;;;;;;;20.40;15.10;;;-5.20;99.90;;;;;;5035883;28;21071;-75
2021/12/06 11:14:06;;;;;;;19.83;14.03;;;-6.10;99.90;;;;;;5034594;28;20763;-75
2021/12/06 11:16:35;;;;;;;18.03;14.43;;;-7.00;99.90;;;;;;5035610;28;20394;-75
2021/12/06 11:19:04;;;;;;;18.00;13.80;;;-6.20;99.90;;;;;;5035886;28;20829;-75
2021/12/06 11:21:48;;;;;;;24.03;13.17;;;-6.40;99.90;;;;;;5036468;28;20474;-75
2021/12/06 11:24:37;;;;;;;15.77;12.00;;;-5.00;99.90;;;;;;5035419;28;20456;-75
2021/12/06 11:27:05;;;;;;;15.90;12.93;;;-6.60;99.90;;;;;;5036013;28;20849;-75
2021/12/06 11:29:33;;;;;;;16.03;11.37;;;-6.50;99.90;;;;;;5026039;28;20500;-75
2021/12/06 11:32:12;;;;;;;16.63;11.20;;;-5.40;99.90;;;;;;5032988;28;20440;-72
2021/12/06 11:34:46;;;;;;;19.17;11.23;;;-6.10;99.90;;;;;;5035644;28;20391;-75
2021/12/06 11:37:23;;;;;;;12.23;9.00;;;-6.30;99.90;;;;;;5035550;28;20417;-75
2021/12/06 11:40:00;;;;;;;13.33;10.97;;;-6.10;99.90;;;;;;5034324;28;20409;-76
2021/12/06 11:42:26;;;;;;;12.20;10.57;;;-6.70;99.90;;;;;;5035546;28;20493;-75
2021/12/06 11:44:52;;;;;;;15.67;9.60;;;-4.70;99.90;;;;;;5033242;28;20422;-75
2021/12/06 11:47:20;;;;;;;10.57;9.27;;;-6.30;99.90;;;;;;5034193;28;20433;-75
2021/12/06 11:49:53;;;;;;;8.60;7.23;;;-5.70;99.90;;;;;;5034957;28;20497;-77
2021/12/06 11:52:33;;;;;;;14.10;7.57;;;-6.20;99.90;;;;;;5035367;28;20398;-78
2021/12/06 11:55:08;;;;;;;10.93;9.07;;;-7.00;99.90;;;;;;5033139;28;20478;-79
2021/12/06 11:57:59;;;;;;;12.03;8.23;;;-6.70;99.90;;;;;;5036127;28;20411;-83
2021/12/06 12:00:26;;;;;;;9.30;7.47;;;-7.00;99.90;;;;;;5036522;28;20418;-78
2021/12/06 12:02:53;;;;;;;9.87;7.23;;;-3.30;99.90;;;;;;5036309;28;20423;-79
2021/12/06 12:05:33;;;;;;;8.20;7.40;;;-4.90;99.90;;;;;;5036911;28;20418;-84
2021/12/06 12:08:06;;;;;;;7.63;6.93;;;-6.60;99.90;;;;;;5034030;28;20431;-77
2021/12/06 12:10:44;;;;;;;11.13;7.63;;;-5.90;99.90;;;;;;5035810;28;20445;-80
2021/12/06 12:13:15;;;;;;;7.57;6.60;;;-5.30;99.90;;;;;;5036263;28;20397;-80
2021/12/06 12:15:40;;;;;;;6.80;5.63;;;-4.20;99.90;;;;;;5038500;28;20396;-81
2021/12/06 12:18:06;;;;;;;9.20;6.80;;;-5.90;99.90;;;;;;5036545;28;20390;-79
2021/12/06 12:20:35;;;;;;;7.60;6.17;;;-4.70;99.90;;;;;;5035695;28;20624;-84
2021/12/06 12:23:07;;;;;;;6.93;6.13;;;-5.10;99.90;;;;;;5036082;28;20591;-79
2021/12/06 12:25:37;;;;;;;7.03;5.40;;;-3.40;99.90;;;;;;5031673;28;20458;-80
2021/12/06 12:30:54;;;;;;;5.40;4.90;;;-6.00;99.90;;;;;;5032861;28;20810;-75
2021/12/06 12:33:27;;;;;;;6.30;4.23;;;-5.50;99.90;;;;;;5027024;28;20419;-75
2021/12/06 12:36:02;;;;;;;6.87;5.90;;;-5.60;99.90;;;;;;5021432;28;20775;-75
2021/12/06 12:38:33;;;;;;;4.77;4.37;;;-5.80;99.90;;;;;;5033820;28;20416;-77
2021/12/06 12:41:05;;;;;;;4.83;3.97;;;-5.70;99.90;;;;;;5034616;28;20563;-77
2021/12/06 12:43:37;;;;;;;5.90;5.40;;;-6.30;99.90;;;;;;5034217;28;20395;-76
2021/12/06 12:46:13;;;;;;;6.03;4.63;;;-4.20;99.90;;;;;;5030241;28;20421;-76
2021/12/06 12:48:56;;;;;;;5.93;4.33;;;-5.60;99.90;;;;;;5033106;28;20444;-76
2021/12/06 12:51:32;;;;;;;5.00;4.43;;;-5.80;99.90;;;;;;5032965;28;20865;-75
2021/12/06 12:54:16;;;;;;;6.60;4.77;;;-5.00;99.90;;;;;;5034473;28;20401;-78